Time;durP1;ratioP1;P1;durP2;ratioP2;P2;SDS_P1;SDS_P2;PMS_P1;PMS_P2;Temp;Humidity;BMP_temperature;BMP_pressure;BME280_temperature;BME280_humidity;BME280_pressure;Samples;Min_cycle;Max_cycle;Signal;HPM_P1;HPM_P2
2023/04/27 00:02:06;;;;;;;;;;;;;;;15.30;65.04;100727.66;5054532;28;19923;-84
2023/04/27 00:04:32;;;;;;;;;;;;;;;15.29;65.06;100739.94;5072488;28;20297;-83
2023/04/27 00:06:57;;;;;;;;;;;;;;;15.32;64.98;100740.03;5071620;28;20551;-84
2023/04/27 00:09:23;;;;;;;;;;;;;;;15.31;64.65;100738.25;5072100;28;20042;-83
2023/04/27 00:11:48;;;;;;;;;;;;;;;15.33;64.73;100744.47;5053853;28;20409;-84
2023/04/27 00:14:14;;;;;;;;;;;;;;;15.35;64.47;100747.16;5070353;28;20293;-84
2023/04/27 00:16:39;;;;;;;;;;;;;;;15.34;64.57;100750.63;5072807;28;19920;-84
2023/04/27 00:19:05;;;;;;;;;;;;;;;15.33;64.54;100754.09;5068229;28;19916;-83
2023/04/27 00:21:31;;;;;;;;;;;;;;;15.27;64.60;100760.03;5070274;28;19913;-83
2023/04/27 00:23:56;;;;;;;;;;;;;;;15.30;64.61;100756.63;5053504;28;20309;-83
2023/04/27 00:26:22;;;;;;;;;;;;;;;15.33;64.23;100760.25;5069106;28;19979;-83
2023/04/27 00:28:47;;;;;;;;;;;;;;;15.34;64.21;100762.03;5070213;28;20413;-84
2023/04/27 00:31:12;;;;;;;;;;;;;;;15.35;64.21;100768.22;5071710;28;19916;-82
2023/04/27 00:33:38;;;;;;;;;;;;;;;15.36;64.17;100762.09;5070982;28;20057;-84
2023/04/27 00:36:03;;;;;;;;;;;;;;;15.45;63.88;100773.84;5052356;28;19924;-84
2023/04/27 00:38:29;;;;;;;;;;;;;;;15.43;64.02;100765.00;5070485;28;20006;-84
2023/04/27 00:41:01;;;;;;;;;;;;;;;15.47;63.79;100773.88;5035766;28;19920;-84
2023/04/27 00:43:26;;;;;;;;;;;;;;;15.40;63.74;100766.63;5071236;28;19920;-83
2023/04/27 00:45:52;;;;;;;;;;;;;;;15.31;64.06;100759.31;5070737;28;19917;-84
2023/04/27 00:48:17;;;;;;;;;;;;;;;15.37;63.92;100756.00;5071111;28;19917;-84
2023/04/27 00:50:42;;;;;;;;;;;;;;;15.33;64.02;100748.84;5071389;28;20412;-83
2023/04/27 00:53:08;;;;;;;;;;;;;;;15.47;63.73;100759.00;5070042;28;20818;-84
2023/04/27 00:55:33;;;;;;;;;;;;;;;15.45;63.51;100749.22;5071953;28;20562;-84
2023/04/27 00:57:59;;;;;;;;;;;;;;;15.54;63.34;100757.47;5069350;28;20513;-83
2023/04/27 01:00:25;;;;;;;;;;;;;;;15.59;63.16;100752.34;5067771;28;20377;-85
2023/04/27 01:02:51;;;;;;;;;;;;;;;15.46;63.32;100762.44;5071184;28;19916;-84
2023/04/27 01:05:16;;;;;;;;;;;;;;;15.53;63.39;100770.56;5070985;28;20371;-84
2023/04/27 01:07:41;;;;;;;;;;;;;;;15.50;63.47;100774.00;5052930;28;20000;-84
2023/04/27 01:10:07;;;;;;;;;;;;;;;15.51;63.13;100790.66;5068382;28;19916;-83
2023/04/27 01:12:32;;;;;;;;;;;;;;;15.44;63.51;100795.72;5054032;28;19912;-84
2023/04/27 01:14:58;;;;;;;;;;;;;;;15.40;63.59;100809.59;5040469;28;20011;-84
2023/04/27 01:17:24;;;;;;;;;;;;;;;15.42;63.50;100814.94;5071127;28;19995;-84
2023/04/27 01:19:55;;;;;;;;;;;;;;;15.39;63.46;100814.84;5052645;28;20053;-84
2023/04/27 01:22:21;;;;;;;;;;;;;;;15.34;63.29;100824.28;5054082;28;19912;-84
2023/04/27 01:24:46;;;;;;;;;;;;;;;15.27;63.59;100825.81;5033610;28;19921;-85
2023/04/27 01:27:17;;;;;;;;;;;;;;;15.27;63.64;100824.06;5047030;28;19963;-84
2023/04/27 01:29:43;;;;;;;;;;;;;;;15.33;63.45;100825.16;5044554;28;19935;-83
2023/04/27 01:32:08;;;;;;;;;;;;;;;15.23;63.53;100826.53;5062404;28;20010;-84
2023/04/27 01:34:34;;;;;;;;;;;;;;;15.39;63.35;100826.25;5070905;28;20413;-84
2023/04/27 01:37:18;;;;;;;;;;;;;;;15.35;63.11;100828.72;5052596;28;19989;-84
2023/04/27 01:39:48;;;;;;;;;;;;;;;15.24;63.40;100838.88;5070034;28;19913;-83
2023/04/27 01:42:13;;;;;;;;;;;;;;;15.26;63.29;100837.16;5069372;28;20019;-84
2023/04/27 01:44:38;;;;;;;;;;;;;;;15.23;63.26;100816.91;5070466;28;19920;-84
2023/04/27 01:47:04;;;;;;;;;;;;;;;15.36;63.04;100827.88;5069326;28;20399;-83
2023/04/27 01:49:29;;;;;;;;;;;;;;;15.32;63.23;100829.47;5067024;28;20549;-84
2023/04/27 01:51:55;;;;;;;;;;;;;;;15.26;63.18;100824.00;5069456;28;19920;-85
2023/04/27 01:54:20;;;;;;;;;;;;;;;15.26;63.00;100822.28;5069505;28;19930;-83
2023/04/27 01:56:46;;;;;;;;;;;;;;;15.21;63.08;100830.84;5050450;28;19935;-84
2023/04/27 01:59:11;;;;;;;;;;;;;;;15.33;63.01;100835.66;5066445;28;19927;-84
2023/04/27 02:01:36;;;;;;;;;;;;;;;15.34;62.74;100838.34;5047216;28;20377;-84
2023/04/27 02:04:03;;;;;;;;;;;;;;;15.10;62.74;100846.25;5049246;28;20390;-84
2023/04/27 02:06:28;;;;;;;;;;;;;;;15.03;62.85;100841.59;5069588;28;20672;-84
2023/04/27 02:08:53;;;;;;;;;;;;;;;15.04;63.25;100841.63;5068973;28;19927;-84
2023/04/27 02:11:19;;;;;;;;;;;;;;;14.99;63.18;100834.44;5052613;28;20287;-84
2023/04/27 02:13:44;;;;;;;;;;;;;;;15.00;63.16;100823.94;5069264;28;20318;-84
2023/04/27 02:16:10;;;;;;;;;;;;;;;15.05;62.99;100827.66;5069835;28;19913;-83
2023/04/27 02:18:35;;;;;;;;;;;;;;;14.91;62.92;100826.25;5070390;28;20412;-84
2023/04/27 02:21:00;;;;;;;;;;;;;;;14.99;62.87;100831.81;5068827;28;19927;-84
2023/04/27 02:23:26;;;;;;;;;;;;;;;14.88;62.69;100841.00;5052047;28;19921;-83
2023/04/27 02:25:51;;;;;;;;;;;;;;;14.76;62.34;100844.09;5070251;28;19916;-84
2023/04/27 02:28:17;;;;;;;;;;;;;;;14.84;62.41;100843.53;5052198;28;19920;-84
2023/04/27 02:30:42;;;;;;;;;;;;;;;14.72;62.00;100842.19;5067887;28;19922;-84
2023/04/27 02:33:07;;;;;;;;;;;;;;;14.76;62.30;100844.09;5051627;28;20519;-84
2023/04/27 02:35:33;;;;;;;;;;;;;;;14.97;62.19;100839.63;5069577;28;20382;-84
2023/04/27 02:37:58;;;;;;;;;;;;;;;14.89;61.79;100841.06;5051858;28;19964;-83
2023/04/27 02:40:24;;;;;;;;;;;;;;;14.94;62.21;100838.63;5068753;28;20397;-83
2023/04/27 02:42:50;;;;;;;;;;;;;;;14.88;62.04;100830.50;5069771;28;20401;-84
2023/04/27 02:45:15;;;;;;;;;;;;;;;14.91;61.95;100847.28;5071162;28;19916;-83
2023/04/27 02:47:41;;;;;;;;;;;;;;;14.81;62.04;100838.16;5054586;28;19920;-83
2023/04/27 02:50:06;;;;;;;;;;;;;;;14.85;61.72;100826.03;5073802;28;19971;-83
2023/04/27 02:52:32;;;;;;;;;;;;;;;14.75;61.20;100842.28;5071994;28;20377;-84
2023/04/27 02:54:57;;;;;;;;;;;;;;;14.66;61.15;100861.22;5055298;28;19920;-84
2023/04/27 02:57:23;;;;;;;;;;;;;;;14.56;61.19;100835.41;5074216;28;19928;-83
2023/04/27 02:59:48;;;;;;;;;;;;;;;14.65;61.54;100849.81;5073193;28;20430;-84
2023/04/27 03:02:14;;;;;;;;;;;;;;;14.66;61.57;100846.34;5073434;28;20437;-83
2023/04/27 03:04:39;;;;;;;;;;;;;;;14.73;61.46;100855.38;5072448;28;19916;-84
2023/04/27 03:07:05;;;;;;;;;;;;;;;14.72;61.17;100858.84;5055958;28;20027;-82
2023/04/27 03:09:30;;;;;;;;;;;;;;;14.77;61.16;100877.41;5073382;28;19916;-85
2023/04/27 03:11:56;;;;;;;;;;;;;;;14.71;60.86;100874.53;5037739;28;19920;-85
2023/04/27 03:14:22;;;;;;;;;;;;;;;14.64;60.88;100903.22;5070863;28;20420;-85
2023/04/27 03:16:47;;;;;;;;;;;;;;;14.72;60.70;100900.91;5055933;28;19955;-86
2023/04/27 03:19:13;;;;;;;;;;;;;;;14.83;61.12;100907.47;5072464;28;19951;-84
2023/04/27 03:21:38;;;;;;;;;;;;;;;14.87;60.90;100913.75;5073706;28;20511;-84
2023/04/27 03:24:04;;;;;;;;;;;;;;;14.91;60.72;100923.53;5073536;28;19920;-84
2023/04/27 03:26:29;;;;;;;;;;;;;;;14.99;60.71;100911.59;5054993;28;19916;-86
2023/04/27 03:28:54;;;;;;;;;;;;;;;15.01;60.69;100915.19;5069668;28;20340;-85
2023/04/27 03:31:20;;;;;;;;;;;;;;;14.96;61.03;100940.38;5065670;28;19916;-86
2023/04/27 03:33:46;;;;;;;;;;;;;;;15.03;60.88;100944.19;5070254;28;20003;-86
2023/04/27 03:36:11;;;;;;;;;;;;;;;15.09;60.53;100936.53;5051558;28;19939;-86
2023/04/27 03:38:37;;;;;;;;;;;;;;;15.18;60.43;100943.88;5052583;28;19950;-86
2023/04/27 03:41:02;;;;;;;;;;;;;;;15.16;60.42;100935.00;5071009;28;19923;-85
2023/04/27 03:43:28;;;;;;;;;;;;;;;15.19;60.48;100941.28;5035931;28;19916;-85
2023/04/27 03:45:53;;;;;;;;;;;;;;;15.10;60.51;100943.56;5069327;28;19926;-86
2023/04/27 03:48:19;;;;;;;;;;;;;;;15.16;60.46;100941.16;5071526;28;20290;-85
2023/04/27 03:50:45;;;;;;;;;;;;;;;15.13;60.48;100951.56;5071182;28;20065;-86
2023/04/27 03:53:11;;;;;;;;;;;;;;;15.13;60.39;100943.66;5053262;28;19923;-86
2023/04/27 03:55:37;;;;;;;;;;;;;;;15.05;60.73;100940.75;5046651;28;19946;-86
2023/04/27 03:58:02;;;;;;;;;;;;;;;15.00;60.75;100960.69;5070970;28;19924;-85
2023/04/27 04:00:28;;;;;;;;;;;;;;;15.08;60.79;100947.88;5069824;28;19963;-86
2023/04/27 04:02:53;;;;;;;;;;;;;;;15.10;60.52;100961.97;5070577;28;19920;-86
2023/04/27 04:05:19;;;;;;;;;;;;;;;15.12;60.63;100955.03;5053998;28;19917;-85
2023/04/27 04:07:44;;;;;;;;;;;;;;;15.09;60.74;100964.53;5053726;28;20396;-86
2023/04/27 04:10:10;;;;;;;;;;;;;;;15.10;60.62;100972.50;5071364;28;19949;-85
2023/04/27 04:12:35;;;;;;;;;;;;;;;15.12;60.59;100955.03;5071237;28;20011;-85
2023/04/27 04:15:01;;;;;;;;;;;;;;;15.14;60.58;100965.63;5069948;28;20413;-85
2023/04/27 04:17:27;;;;;;;;;;;;;;;15.09;60.63;100967.16;5053895;28;19916;-85
2023/04/27 04:19:52;;;;;;;;;;;;;;;15.11;60.71;100965.50;5066122;28;19916;-85
2023/04/27 04:22:18;;;;;;;;;;;;;;;14.98;60.91;100970.25;5053941;28;19931;-85
2023/04/27 04:24:43;;;;;;;;;;;;;;;14.99;60.72;100974.72;5053507;28;20388;-85
2023/04/27 04:27:09;;;;;;;;;;;;;;;14.91;60.95;100973.50;5068552;28;20009;-84
2023/04/27 04:29:34;;;;;;;;;;;;;;;14.91;60.85;100984.03;5069707;28;19916;-85
2023/04/27 04:32:00;;;;;;;;;;;;;;;14.95;60.78;100985.94;5070619;28;20404;-85
2023/04/27 04:34:26;;;;;;;;;;;;;;;15.05;60.54;100982.84;5069288;28;20363;-85
2023/04/27 04:36:51;;;;;;;;;;;;;;;14.98;60.61;100979.91;5053441;28;19918;-84
2023/04/27 04:39:19;;;;;;;;;;;;;;;14.97;60.78;100988.63;5054466;28;20011;-85
2023/04/27 04:41:44;;;;;;;;;;;;;;;14.94;60.74;100999.91;5069655;28;19916;-83
2023/04/27 04:44:10;;;;;;;;;;;;;;;14.92;60.69;101004.25;5047586;28;19927;-83
2023/04/27 04:46:36;;;;;;;;;;;;;;;14.91;60.82;101004.16;5064574;28;19973;-84
2023/04/27 04:49:01;;;;;;;;;;;;;;;14.96;60.76;101010.50;5070584;28;19935;-84
2023/04/27 04:51:27;;;;;;;;;;;;;;;14.97;60.69;101017.56;5070101;28;19950;-85
2023/04/27 04:53:52;;;;;;;;;;;;;;;14.99;60.77;101019.41;5071264;28;20015;-84
2023/04/27 04:56:17;;;;;;;;;;;;;;;15.11;60.37;101023.34;5070845;28;20075;-84
2023/04/27 04:58:43;;;;;;;;;;;;;;;14.96;60.65;101021.91;5069014;28;19985;-86
2023/04/27 05:01:08;;;;;;;;;;;;;;;14.99;60.78;101026.41;5068718;28;20316;-85
2023/04/27 05:03:34;;;;;;;;;;;;;;;14.94;60.74;101030.56;5052400;28;19923;-85
2023/04/27 05:05:59;;;;;;;;;;;;;;;14.94;60.76;101034.09;5050064;28;20365;-86
2023/04/27 05:08:26;;;;;;;;;;;;;;;14.83;60.89;101032.78;5067199;28;19928;-87
2023/04/27 05:10:51;;;;;;;;;;;;;;;14.99;60.51;101037.81;5029468;28;19986;-85
2023/04/27 05:13:17;;;;;;;;;;;;;;;15.03;60.46;101049.38;5065384;28;20381;-86
2023/04/27 05:15:43;;;;;;;;;;;;;;;14.89;60.66;101046.16;5049536;28;19974;-86
2023/04/27 05:18:09;;;;;;;;;;;;;;;14.90;60.90;101054.94;5052115;28;19920;-87
2023/04/27 05:20:35;;;;;;;;;;;;;;;14.96;60.69;101056.09;5070118;28;19923;-87
2023/04/27 05:23:01;;;;;;;;;;;;;;;14.91;60.80;101056.75;5067796;28;19913;-87
2023/04/27 05:25:33;;;;;;;;;;;;;;;14.80;60.91;101061.56;5052604;28;19928;-86
2023/04/27 05:27:59;;;;;;;;;;;;;;;14.75;60.92;101053.50;5050333;28;20393;-87
2023/04/27 05:30:24;;;;;;;;;;;;;;;14.82;60.85;101062.53;5051697;28;19938;-86
2023/04/27 05:32:50;;;;;;;;;;;;;;;14.92;60.41;101062.09;5070342;28;19923;-85
2023/04/27 05:35:16;;;;;;;;;;;;;;;14.85;60.64;101057.41;5051614;28;19916;-87
2023/04/27 05:37:42;;;;;;;;;;;;;;;14.85;60.65;101063.53;5051900;28;19913;-87
2023/04/27 05:40:09;;;;;;;;;;;;;;;14.81;60.79;101066.88;5069733;28;19913;-87
2023/04/27 05:42:46;;;;;;;;;;;;;;;14.88;60.78;101065.44;5034941;28;19971;-85
2023/04/27 05:45:12;;;;;;;;;;;;;;;14.76;61.04;101075.44;5051022;28;20306;-85
2023/04/27 05:47:38;;;;;;;;;;;;;;;14.75;61.15;101058.75;5034021;28;20427;-87
2023/04/27 05:50:04;;;;;;;;;;;;;;;14.73;61.05;101070.94;5052088;28;19925;-84
2023/04/27 05:52:44;;;;;;;;;;;;;;;14.86;60.80;101077.63;5073087;28;19912;-86
2023/04/27 05:55:10;;;;;;;;;;;;;;;14.77;61.15;101074.56;5065562;28;20015;-84
2023/04/27 05:57:36;;;;;;;;;;;;;;;14.76;61.09;101075.44;5065008;28;19991;-84
2023/04/27 06:00:06;;;;;;;;;;;;;;;14.77;60.93;101074.56;5069222;28;19927;-86
2023/04/27 06:02:31;;;;;;;;;;;;;;;14.70;61.12;101073.44;5059882;28;19913;-84
2023/04/27 06:04:59;;;;;;;;;;;;;;;14.73;61.17;101075.28;5049547;28;19930;-84
2023/04/27 06:07:26;;;;;;;;;;;;;;;14.76;61.07;101078.06;5034484;28;19955;-86
2023/04/27 06:09:52;;;;;;;;;;;;;;;14.73;61.18;101075.28;5035051;28;19920;-86
2023/04/27 06:12:17;;;;;;;;;;;;;;;14.69;60.94;101071.66;5042505;28;20042;-85
2023/04/27 06:14:43;;;;;;;;;;;;;;;14.74;61.06;101066.56;5050072;28;20302;-85
2023/04/27 06:17:08;;;;;;;;;;;;;;;14.70;61.45;101075.16;5036534;28;19939;-85
2023/04/27 06:19:33;;;;;;;;;;;;;;;14.72;61.48;101078.75;5052678;28;19970;-86
2023/04/27 06:21:59;;;;;;;;;;;;;;;14.73;61.40;101080.53;5055264;28;20301;-84
2023/04/27 06:24:25;;;;;;;;;;;;;;;14.72;61.31;101087.53;5049108;28;19947;-85
2023/04/27 06:26:50;;;;;;;;;;;;;;;14.74;61.54;101082.34;5042936;28;20566;-85
2023/04/27 06:29:21;;;;;;;;;;;;;;;14.78;61.31;101079.03;5034792;28;19919;-86
2023/04/27 06:32:05;;;;;;;;;;;;;;;14.75;61.53;101078.88;5045606;28;19917;-85
2023/04/27 06:34:34;;;;;;;;;;;;;;;14.71;61.36;101076.94;5067417;28;19916;-85
2023/04/27 06:37:01;;;;;;;;;;;;;;;14.67;61.68;101073.31;5066497;28;19917;-84
2023/04/27 06:39:45;;;;;;;;;;;;;;;14.70;61.73;101081.31;5067097;28;20716;-85
2023/04/27 06:42:20;;;;;;;;;;;;;;;14.73;61.66;101067.38;5068017;28;19916;-84
2023/04/27 06:44:45;;;;;;;;;;;;;;;14.74;61.31;101069.22;5071233;28;19913;-84
2023/04/27 06:47:11;;;;;;;;;;;;;;;14.72;61.60;101074.38;5068888;28;19912;-84
2023/04/27 06:49:37;;;;;;;;;;;;;;;14.78;61.72;101079.03;5064477;28;20015;-84
2023/04/27 06:52:03;;;;;;;;;;;;;;;14.72;61.85;101094.53;5046858;28;19919;-85
2023/04/27 06:54:28;;;;;;;;;;;;;;;14.73;61.69;101098.94;5067867;28;19916;-85
2023/04/27 06:56:54;;;;;;;;;;;;;;;14.68;62.02;101090.88;5068586;28;19912;-86
2023/04/27 06:59:20;;;;;;;;;;;;;;;14.74;61.42;101113.91;5060051;28;20362;-85
2023/04/27 07:01:45;;;;;;;;;;;;;;;14.71;61.75;101098.91;5067063;28;19939;-85
2023/04/27 07:04:11;;;;;;;;;;;;;;;14.75;61.79;101105.16;5070178;28;19934;-85
2023/04/27 07:06:36;;;;;;;;;;;;;;;14.76;61.81;101101.72;5058667;28;20417;-84
2023/04/27 07:09:04;;;;;;;;;;;;;;;14.80;61.69;101114.16;5051986;28;20368;-85
2023/04/27 07:11:30;;;;;;;;;;;;;;;14.85;61.83;101117.88;5066965;28;19973;-85
2023/04/27 07:13:55;;;;;;;;;;;;;;;14.81;62.09;101111.56;5052187;28;19920;-85
2023/04/27 07:16:21;;;;;;;;;;;;;;;14.83;62.18;101112.53;5070883;28;19955;-85
2023/04/27 07:18:46;;;;;;;;;;;;;;;14.89;62.08;101111.91;5069640;28;19912;-85
2023/04/27 07:21:11;;;;;;;;;;;;;;;14.88;62.24;101123.28;5052138;28;19912;-85
2023/04/27 07:23:38;;;;;;;;;;;;;;;14.81;61.84;101123.81;5067852;28;20412;-85
2023/04/27 07:26:03;;;;;;;;;;;;;;;14.84;62.23;101123.97;5044586;28;19916;-85
2023/04/27 07:28:29;;;;;;;;;;;;;;;14.90;61.97;101123.31;5052423;28;20278;-84
2023/04/27 07:30:56;;;;;;;;;;;;;;;14.85;62.42;101129.28;5054318;28;19920;-83
2023/04/27 07:33:22;;;;;;;;;;;;;;;14.92;62.49;101129.53;5038297;28;20360;-85
2023/04/27 07:35:49;;;;;;;;;;;;;;;14.90;62.43;101131.19;5073282;28;20426;-84
2023/04/27 07:38:16;;;;;;;;;;;;;;;14.89;62.22;101135.56;5073138;28;19912;-83
2023/04/27 07:40:41;;;;;;;;;;;;;;;14.96;62.39;101136.72;5071698;28;19916;-83
2023/04/27 07:43:08;;;;;;;;;;;;;;;14.90;62.22;101149.59;5071107;28;19989;-83
2023/04/27 07:45:37;;;;;;;;;;;;;;;14.88;62.65;101148.66;5069276;28;19916;-83
2023/04/27 07:48:03;;;;;;;;;;;;;;;14.88;62.45;101143.38;5050173;28;20400;-82
2023/04/27 07:50:29;;;;;;;;;;;;;;;14.87;62.49;101153.00;5071172;28;19916;-82
2023/04/27 07:52:55;;;;;;;;;;;;;;;14.87;62.70;101142.50;5071619;28;19927;-82
2023/04/27 07:55:21;;;;;;;;;;;;;;;14.90;62.42;101150.53;5071783;28;19908;-83
2023/04/27 07:57:46;;;;;;;;;;;;;;;14.84;62.32;101145.00;5071586;28;19912;-82
2023/04/27 08:00:12;;;;;;;;;;;;;;;14.83;61.74;101153.72;5072745;28;19919;-83
2023/04/27 08:02:37;;;;;;;;;;;;;;;14.81;62.37;101147.50;5072655;28;20377;-83
2023/04/27 08:05:03;;;;;;;;;;;;;;;14.81;62.09;101147.50;5070359;28;19913;-83
2023/04/27 08:07:29;;;;;;;;;;;;;;;14.80;62.38;101148.34;5071904;28;20069;-83
2023/04/27 08:09:54;;;;;;;;;;;;;;;14.89;62.21;101147.84;5084154;28;20359;-83
2023/04/27 08:12:19;;;;;;;;;;;;;;;14.90;61.98;101149.59;5070329;28;19916;-84
2023/04/27 08:14:46;;;;;;;;;;;;;;;14.79;61.69;101154.41;5069905;28;19965;-84
2023/04/27 08:17:11;;;;;;;;;;;;;;;14.81;61.36;101156.28;5050735;28;19924;-84
2023/04/27 08:19:37;;;;;;;;;;;;;;;14.76;61.87;101160.44;5061398;28;19916;-85
2023/04/27 08:22:02;;;;;;;;;;;;;;;14.69;60.97;101152.22;5058059;28;20219;-83
2023/04/27 08:24:27;;;;;;;;;;;;;;;14.71;61.07;101153.19;5068647;28;19931;-84
2023/04/27 08:26:53;;;;;;;;;;;;;;;14.68;60.40;101153.06;5072947;28;19927;-83
2023/04/27 08:29:18;;;;;;;;;;;;;;;14.68;60.56;101158.31;5054407;28;19956;-83
2023/04/27 08:31:44;;;;;;;;;;;;;;;14.75;60.93;101153.41;5068925;28;19920;-84
2023/04/27 08:34:10;;;;;;;;;;;;;;;14.73;61.02;101156.78;5052930;28;19917;-84
2023/04/27 08:36:35;;;;;;;;;;;;;;;14.74;61.27;101148.06;5066516;28;19920;-84
2023/04/27 08:39:01;;;;;;;;;;;;;;;14.77;61.71;101150.81;5070446;28;20019;-83
2023/04/27 08:41:26;;;;;;;;;;;;;;;14.83;61.69;101159.84;5070173;28;20365;-84
2023/04/27 08:43:52;;;;;;;;;;;;;;;14.86;61.57;101149.50;5070921;28;19920;-83
2023/04/27 08:46:19;;;;;;;;;;;;;;;14.81;61.18;101148.38;5053510;28;20401;-84
2023/04/27 08:48:44;;;;;;;;;;;;;;;14.79;60.77;101143.91;5031471;28;20356;-84
2023/04/27 08:51:10;;;;;;;;;;;;;;;14.84;60.23;101139.75;5064651;28;19921;-84
2023/04/27 08:53:35;;;;;;;;;;;;;;;14.90;61.37;101142.66;5044183;28;19912;-84
2023/04/27 08:56:01;;;;;;;;;;;;;;;14.88;61.15;101135.50;5068558;28;19916;-84
2023/04/27 08:58:36;;;;;;;;;;;;;;;14.85;60.20;101129.28;5053556;28;20489;-83
2023/04/27 09:01:04;;;;;;;;;;;;;;;14.95;61.33;101129.69;5063837;28;19948;-86
2023/04/27 09:03:29;;;;;;;;;;;;;;;14.94;61.26;101128.75;5048810;28;20424;-84
2023/04/27 09:05:55;;;;;;;;;;;;;;;14.91;61.10;101126.00;5066583;28;20080;-85
2023/04/27 09:08:20;;;;;;;;;;;;;;;14.94;61.77;101133.13;5047627;28;19943;-84
2023/04/27 09:10:46;;;;;;;;;;;;;;;14.97;61.35;101128.00;5069358;28;20298;-85
2023/04/27 09:13:11;;;;;;;;;;;;;;;14.97;62.07;101125.38;5048354;28;20317;-84
2023/04/27 09:15:44;;;;;;;;;;;;;;;15.01;62.01;101125.56;5061236;28;19920;-84
2023/04/27 09:18:21;;;;;;;;;;;;;;;14.97;60.05;101128.00;5030321;28;19916;-86
2023/04/27 09:20:50;;;;;;;;;;;;;;;14.98;61.79;101121.91;5050611;28;19916;-83
2023/04/27 09:23:26;;;;;;;;;;;;;;;14.97;61.39;101122.75;5064060;28;19909;-85
2023/04/27 09:25:52;;;;;;;;;;;;;;;14.91;60.84;101126.00;5050085;28;19966;-85
2023/04/27 09:28:18;;;;;;;;;;;;;;;14.99;61.58;101121.97;5044567;28;19974;-85
2023/04/27 09:30:50;;;;;;;;;;;;;;;15.03;61.58;101128.28;5050942;28;19955;-84
2023/04/27 09:33:21;;;;;;;;;;;;;;;15.01;61.41;101122.94;5051377;28;19912;-84
2023/04/27 09:35:46;;;;;;;;;;;;;;;14.91;59.53;101128.66;5062686;28;19955;-85
2023/04/27 09:38:12;;;;;;;;;;;;;;;14.97;60.33;101134.16;5047912;28;19943;-82
2023/04/27 09:40:39;;;;;;;;;;;;;;;14.96;58.23;101129.72;5050172;28;20349;-84
2023/04/27 09:43:04;;;;;;;;;;;;;;;14.95;60.37;101140.19;5049689;28;20003;-84
2023/04/27 09:45:31;;;;;;;;;;;;;;;15.05;59.89;101137.13;5048757;28;20003;-85
2023/04/27 09:47:57;;;;;;;;;;;;;;;15.09;61.27;101138.13;5036169;28;19916;-85
2023/04/27 09:50:22;;;;;;;;;;;;;;;15.11;61.35;101136.47;5065737;28;19909;-85
2023/04/27 09:52:48;;;;;;;;;;;;;;;15.09;60.74;101131.16;5066958;28;20293;-85
2023/04/27 09:55:18;;;;;;;;;;;;;;;15.12;61.75;101133.00;5066850;28;20374;-85
2023/04/27 09:57:54;;;;;;;;;;;;;;;15.09;61.26;101130.25;5051706;28;19917;-85
2023/04/27 10:00:39;;;;;;;;;;;;;;;15.08;61.16;101126.72;5051577;28;20321;-85
2023/04/27 10:03:13;;;;;;;;;;;;;;;15.11;61.10;101125.94;5051866;28;19919;-85
2023/04/27 10:05:39;;;;;;;;;;;;;;;15.09;59.92;101133.78;5054651;28;19924;-85
2023/04/27 10:08:05;;;;;;;;;;;;;;;15.17;61.15;101127.09;5051064;28;19916;-87
2023/04/27 10:10:40;;;;;;;;;;;;;;;15.16;62.56;101142.84;5065419;28;20007;-87
2023/04/27 10:13:06;;;;;;;;;;;;;;;15.21;61.79;101136.00;5064870;28;19923;-85
2023/04/27 10:15:31;;;;;;;;;;;;;;;15.18;61.94;101122.75;5066100;28;19912;-85
2023/04/27 10:18:02;;;;;;;;;;;;;;;15.12;60.92;101120.75;5049186;28;19924;-86
2023/04/27 10:20:27;;;;;;;;;;;;;;;15.11;61.06;101124.19;5065975;28;19912;-85
2023/04/27 10:22:53;;;;;;;;;;;;;;;15.15;61.52;101130.50;5048915;28;20058;-85
2023/04/27 10:25:18;;;;;;;;;;;;;;;15.19;61.39;101125.41;5050163;28;19978;-85
2023/04/27 10:27:54;;;;;;;;;;;;;;;15.22;61.69;101135.19;5047338;28;20421;-86
2023/04/27 10:30:20;;;;;;;;;;;;;;;15.21;61.12;101131.63;5050757;28;19916;-85
2023/04/27 10:32:50;;;;;;;;;;;;;;;15.06;60.46;101139.81;5066193;28;19920;-85
2023/04/27 10:35:16;;;;;;;;;;;;;;;15.30;60.49;101133.75;5056084;28;19913;-84
2023/04/27 10:37:41;;;;;;;;;;;;;;;15.34;60.03;101129.50;5031963;28;20269;-84
2023/04/27 10:40:14;;;;;;;;;;;;;;;15.40;59.78;101141.19;5040212;28;19913;-84
2023/04/27 10:42:39;;;;;;;;;;;;;;;15.17;60.17;101140.25;5049403;28;19974;-84
2023/04/27 10:45:05;;;;;;;;;;;;;;;15.09;60.37;101132.88;5059587;28;19913;-85
2023/04/27 10:47:37;;;;;;;;;;;;;;;15.05;60.36;101134.50;5049818;28;20362;-85
2023/04/27 10:50:03;;;;;;;;;;;;;;;15.16;60.03;101129.69;5048837;28;19919;-85
2023/04/27 10:52:29;;;;;;;;;;;;;;;15.30;59.04;101125.84;5065703;28;20301;-85
2023/04/27 10:54:54;;;;;;;;;;;;;;;15.10;59.54;101125.06;5050592;28;20294;-84
2023/04/27 10:57:20;;;;;;;;;;;;;;;15.02;60.25;101119.47;5050051;28;20004;-85
2023/04/27 10:59:52;;;;;;;;;;;;;;;15.20;59.41;101126.34;5064625;28;19917;-84
2023/04/27 11:02:25;;;;;;;;;;;;;;;15.30;59.77;101130.22;5065837;28;19943;-83
2023/04/27 11:04:50;;;;;;;;;;;;;;;15.50;59.48;101123.16;5065850;28;19913;-83
2023/04/27 11:07:22;;;;;;;;;;;;;;;15.19;60.00;101130.69;5069654;28;19913;-85
2023/04/27 11:09:48;;;;;;;;;;;;;;;15.12;60.02;101133.91;5068192;28;20321;-85
2023/04/27 11:12:13;;;;;;;;;;;;;;;15.18;59.93;101134.16;5053329;28;19917;-85
2023/04/27 11:14:38;;;;;;;;;;;;;;;15.15;59.38;101127.88;5072957;28;20442;-84
2023/04/27 11:17:04;;;;;;;;;;;;;;;15.22;58.55;101137.81;5067807;28;19916;-85
2023/04/27 11:19:29;;;;;;;;;;;;;;;15.22;59.14;101138.72;5059282;28;20435;-84
2023/04/27 11:22:05;;;;;;;;;;;;;;;15.09;58.14;101133.78;5074174;28;20007;-85
2023/04/27 11:24:30;;;;;;;;;;;;;;;15.10;59.32;101132.06;5072873;28;20003;-85
2023/04/27 11:26:56;;;;;;;;;;;;;;;15.19;58.56;101127.16;5072628;28;20010;-85
2023/04/27 11:29:21;;;;;;;;;;;;;;;15.11;57.95;101137.34;5056132;28;19967;-85
2023/04/27 11:31:50;;;;;;;;;;;;;;;15.29;58.55;101133.72;5072898;28;19913;-85
2023/04/27 11:34:16;;;;;;;;;;;;;;;15.33;58.40;101136.53;5072702;28;19999;-86
2023/04/27 11:36:41;;;;;;;;;;;;;;;15.47;58.51;101132.72;5074014;28;19916;-86
2023/04/27 11:39:08;;;;;;;;;;;;;;;15.36;57.83;101133.09;5072492;28;19923;-85
2023/04/27 11:41:38;;;;;;;;;;;;;;;15.40;58.46;101128.03;5072652;28;20270;-85
2023/04/27 11:44:07;;;;;;;;;;;;;;;15.50;58.36;101131.94;5072328;28;19912;-85
2023/04/27 11:46:35;;;;;;;;;;;;;;;15.58;58.20;101129.63;5067142;28;19970;-85
2023/04/27 11:49:02;;;;;;;;;;;;;;;15.40;58.63;101133.28;5043291;28;19923;-85
2023/04/27 11:51:28;;;;;;;;;;;;;;;15.47;58.64;101150.22;5073255;28;19916;-85
2023/04/27 11:53:53;;;;;;;;;;;;;;;15.52;58.77;101140.78;5071246;28;19919;-84
2023/04/27 11:56:19;;;;;;;;;;;;;;;15.31;58.87;101148.72;5073469;28;20305;-86
2023/04/27 11:58:44;;;;;;;;;;;;;;;15.17;57.68;101148.13;5073183;28;20370;-85
2023/04/27 12:01:11;;;;;;;;;;;;;;;15.15;57.13;101148.91;5073578;28;20405;-86
2023/04/27 12:03:37;;;;;;;;;;;;;;;15.16;57.53;101148.09;5072002;28;19995;-84
2023/04/27 12:06:02;;;;;;;;;;;;;;;15.20;57.90;101140.38;5073363;28;20469;-85
2023/04/27 12:08:28;;;;;;;;;;;;;;;15.30;58.44;101138.13;5073417;28;19923;-85
2023/04/27 12:10:54;;;;;;;;;;;;;;;15.34;58.09;101145.31;5073316;28;19920;-84
2023/04/27 12:13:20;;;;;;;;;;;;;;;15.33;58.07;101161.94;5068210;28;19921;-84
2023/04/27 12:15:45;;;;;;;;;;;;;;;15.25;58.35;101151.09;5068320;28;20312;-84
2023/04/27 12:18:11;;;;;;;;;;;;;;;15.33;58.05;101147.03;5052649;28;19920;-84
2023/04/27 12:20:36;;;;;;;;;;;;;;;15.25;57.11;101157.25;5068333;28;19912;-84
2023/04/27 12:23:02;;;;;;;;;;;;;;;15.22;58.02;101153.63;5068166;28;19913;-85
2023/04/27 12:25:27;;;;;;;;;;;;;;;15.30;57.76;101153.91;5068160;28;20030;-84
2023/04/27 12:27:53;;;;;;;;;;;;;;;15.32;58.12;101144.34;5068106;28;20010;-85
2023/04/27 12:30:18;;;;;;;;;;;;;;;15.33;56.95;101146.16;5067768;28;20698;-85
2023/04/27 12:32:44;;;;;;;;;;;;;;;15.18;57.36;101149.94;5067769;28;19924;-85